Time;durP1;ratioP1;P1;durP2;ratioP2;P2;SDS_P1;SDS_P2;PMS_P1;PMS_P2;Temp;Humidity;BMP_temperature;BMP_pressure;BME280_temperature;BME280_humidity;BME280_pressure;Samples;Min_cycle;Max_cycle;Signal;HPM_P1;HPM_P2
2023/05/14 00:02:04;;;;;;;9.43;8.63;;;16.10;95.30;;;;;;5080126;28;20933;-68
2023/05/14 00:04:31;;;;;;;9.97;7.97;;;16.20;95.40;;;;;;5079902;28;20517;-68
2023/05/14 00:06:58;;;;;;;9.70;8.80;;;16.10;95.40;;;;;;5079447;28;20455;-70
2023/05/14 00:09:26;;;;;;;10.30;9.00;;;16.20;95.90;;;;;;5079240;28;20465;-69
2023/05/14 00:11:53;;;;;;;10.30;9.27;;;16.10;96.10;;;;;;5079855;28;20482;-68
2023/05/14 00:14:20;;;;;;;9.27;8.47;;;16.10;96.50;;;;;;5080073;28;20790;-69
2023/05/14 00:16:47;;;;;;;10.00;9.00;;;16.10;96.80;;;;;;5079987;28;20465;-69
2023/05/14 00:19:14;;;;;;;9.43;7.70;;;16.10;97.00;;;;;;5079579;28;20550;-68
2023/05/14 00:21:40;;;;;;;8.63;7.83;;;16.10;97.20;;;;;;5079829;28;20450;-68
2023/05/14 00:24:07;;;;;;;8.83;7.93;;;16.10;97.30;;;;;;5079367;28;20454;-68
2023/05/14 00:26:36;;;;;;;9.00;8.10;;;16.00;97.40;;;;;;5078857;28;20454;-68
2023/05/14 00:29:03;;;;;;;8.60;7.90;;;16.00;98.00;;;;;;5079150;28;20497;-68
2023/05/14 00:31:29;;;;;;;9.00;8.17;;;16.00;97.80;;;;;;5079425;28;20474;-68
2023/05/14 00:33:56;;;;;;;9.50;8.50;;;15.90;98.10;;;;;;5078570;28;20488;-68
2023/05/14 00:36:23;;;;;;;8.33;7.00;;;15.90;98.50;;;;;;5078818;28;20541;-68
2023/05/14 00:38:50;;;;;;;10.70;7.87;;;15.90;98.70;;;;;;5078685;28;20549;-68
2023/05/14 00:41:17;;;;;;;7.27;6.67;;;15.80;98.80;;;;;;5077883;28;20458;-68
2023/05/14 00:43:45;;;;;;;9.40;7.23;;;15.80;99.00;;;;;;5077886;28;20530;-68
2023/05/14 00:46:12;;;;;;;8.30;7.60;;;15.80;99.20;;;;;;5077458;28;20494;-68
2023/05/14 00:48:39;;;;;;;7.20;6.50;;;15.80;99.60;;;;;;5076777;28;20549;-68
2023/05/14 00:51:06;;;;;;;7.80;7.10;;;15.70;99.90;;;;;;5077334;28;20482;-68
2023/05/14 00:53:34;;;;;;;8.40;7.60;;;15.70;99.90;;;;;;5077249;28;20541;-68
2023/05/14 00:56:00;;;;;;;8.37;7.07;;;15.70;99.90;;;;;;5077334;28;20464;-69
2023/05/14 00:58:27;;;;;;;8.00;7.20;;;15.70;99.90;;;;;;5077856;28;20453;-68
2023/05/14 01:00:55;;;;;;;7.77;7.17;;;15.70;99.90;;;;;;5077033;28;20958;-68
2023/05/14 01:03:22;;;;;;;9.10;7.23;;;15.70;99.90;;;;;;5077466;28;20464;-68
2023/05/14 01:05:59;;;;;;;7.83;7.03;;;15.70;99.90;;;;;;5077619;28;20454;-68
2023/05/14 01:08:34;;;;;;;8.07;7.33;;;15.60;99.90;;;;;;5078170;28;20434;-68
2023/05/14 01:11:11;;;;;;;7.43;6.70;;;15.70;99.90;;;;;;5081596;28;20462;-69
2023/05/14 01:13:46;;;;;;;8.20;7.40;;;15.70;99.90;;;;;;5081114;28;20528;-69
2023/05/14 01:16:18;;;;;;;7.80;6.97;;;15.60;99.90;;;;;;5082153;28;20745;-69
2023/05/14 01:18:48;;;;;;;8.03;7.27;;;15.60;99.90;;;;;;5081207;28;20504;-69
2023/05/14 01:21:36;;;;;;;8.60;7.70;;;15.60;99.90;;;;;;5081505;28;20458;-69
2023/05/14 01:24:03;;;;;;;8.03;7.20;;;15.60;99.90;;;;;;5081261;28;20449;-69
2023/05/14 01:26:30;;;;;;;7.97;7.27;;;15.60;99.90;;;;;;5081670;28;20454;-69
2023/05/14 01:29:02;;;;;;;8.43;7.63;;;15.60;99.90;;;;;;5081871;28;20549;-69
2023/05/14 01:31:32;;;;;;;7.43;6.73;;;15.50;99.90;;;;;;5081754;28;20562;-68
2023/05/14 01:34:01;;;;;;;8.93;8.00;;;15.40;99.90;;;;;;5081786;28;20711;-70
2023/05/14 01:36:30;;;;;;;8.40;7.53;;;15.40;99.90;;;;;;5081095;28;20468;-68
2023/05/14 01:38:57;;;;;;;8.23;7.53;;;15.40;99.90;;;;;;5081165;28;20580;-68
2023/05/14 01:41:25;;;;;;;8.10;7.07;;;15.30;99.90;;;;;;5081889;28;20446;-69
2023/05/14 01:43:53;;;;;;;8.27;7.00;;;15.40;99.90;;;;;;5082221;28;20454;-69
2023/05/14 01:46:19;;;;;;;8.90;7.63;;;15.40;99.90;;;;;;5081044;28;20453;-68
2023/05/14 01:48:47;;;;;;;7.87;7.13;;;15.40;99.90;;;;;;5080945;28;20442;-68
2023/05/14 01:51:14;;;;;;;8.13;7.10;;;15.30;99.90;;;;;;5081216;28;20574;-68
2023/05/14 01:53:42;;;;;;;7.60;6.90;;;15.30;99.90;;;;;;5081550;28;20454;-69
2023/05/14 01:56:09;;;;;;;7.97;7.13;;;15.30;99.90;;;;;;5081652;28;20484;-69
2023/05/14 01:58:36;;;;;;;9.20;6.97;;;15.30;99.90;;;;;;5081149;28;20460;-69
2023/05/14 02:01:03;;;;;;;7.73;7.03;;;15.30;99.90;;;;;;5081345;28;20464;-69
2023/05/14 02:03:30;;;;;;;8.13;7.43;;;15.30;99.90;;;;;;5080977;28;20462;-68
2023/05/14 02:05:56;;;;;;;8.00;7.30;;;15.30;99.90;;;;;;5081179;28;20465;-68
2023/05/14 02:08:23;;;;;;;7.80;7.00;;;15.30;99.90;;;;;;5081424;28;20469;-70
2023/05/14 02:10:51;;;;;;;8.70;7.90;;;15.30;99.90;;;;;;5082173;28;20563;-69
2023/05/14 02:13:19;;;;;;;8.30;7.50;;;15.30;99.90;;;;;;5081000;28;20574;-69
2023/05/14 02:15:46;;;;;;;9.63;7.20;;;15.30;99.90;;;;;;5081934;28;20450;-70
2023/05/14 02:18:13;;;;;;;11.23;7.50;;;15.30;99.90;;;;;;5081178;28;20458;-71
2023/05/14 02:20:40;;;;;;;7.90;7.20;;;15.30;99.90;;;;;;5080190;28;20927;-69
2023/05/14 02:23:07;;;;;;;7.80;7.00;;;15.30;99.90;;;;;;5081086;28;20486;-70
2023/05/14 02:25:33;;;;;;;9.10;6.33;;;15.30;99.90;;;;;;5081995;28;20450;-70
2023/05/14 02:28:02;;;;;;;8.03;7.07;;;15.30;99.90;;;;;;5081319;28;20919;-68
2023/05/14 02:30:30;;;;;;;7.57;6.37;;;15.40;99.90;;;;;;5080903;28;20522;-69
2023/05/14 02:32:57;;;;;;;7.20;6.53;;;15.30;99.90;;;;;;5080752;28;20504;-69
2023/05/14 02:35:23;;;;;;;7.67;6.87;;;15.40;99.90;;;;;;5081173;28;20468;-69
2023/05/14 02:37:50;;;;;;;7.30;6.60;;;15.40;99.90;;;;;;5081283;28;20462;-69
2023/05/14 02:40:17;;;;;;;8.60;7.00;;;15.40;99.90;;;;;;5081219;28;20478;-71
2023/05/14 02:42:44;;;;;;;7.80;7.10;;;15.40;99.90;;;;;;5080915;28;20925;-69
2023/05/14 02:45:12;;;;;;;8.80;6.90;;;15.40;99.90;;;;;;5080819;28;20458;-69
2023/05/14 02:47:39;;;;;;;8.33;7.47;;;15.40;99.90;;;;;;5081400;28;20454;-69
2023/05/14 02:50:07;;;;;;;7.57;6.50;;;15.40;99.90;;;;;;5080957;28;20460;-70
2023/05/14 02:52:34;;;;;;;8.87;6.63;;;15.40;99.90;;;;;;5080812;28;20488;-70
2023/05/14 02:55:01;;;;;;;7.50;6.80;;;15.40;99.80;;;;;;5080974;28;20481;-70
2023/05/14 02:57:28;;;;;;;7.20;6.60;;;15.40;99.50;;;;;;5080999;28;20454;-70
2023/05/14 02:59:55;;;;;;;8.40;6.57;;;15.40;99.10;;;;;;5080323;28;20541;-69
2023/05/14 03:02:23;;;;;;;6.67;6.07;;;15.40;98.80;;;;;;5079943;28;20911;-70
2023/05/14 03:04:50;;;;;;;9.50;5.87;;;15.40;98.00;;;;;;5079249;28;20458;-69
2023/05/14 03:07:17;;;;;;;7.23;6.50;;;15.40;98.00;;;;;;5080101;28;20458;-69
2023/05/14 03:09:44;;;;;;;7.13;6.43;;;15.40;97.80;;;;;;5080844;28;20466;-69
2023/05/14 03:12:11;;;;;;;7.00;6.40;;;15.40;97.60;;;;;;5080129;28;20473;-68
2023/05/14 03:14:38;;;;;;;7.23;6.53;;;15.50;97.90;;;;;;5081397;28;20933;-68
2023/05/14 03:17:05;;;;;;;7.53;6.77;;;15.50;97.40;;;;;;5081027;28;20544;-69
2023/05/14 03:19:33;;;;;;;7.40;6.70;;;15.50;97.10;;;;;;5080357;28;20819;-69
2023/05/14 03:22:00;;;;;;;8.03;7.00;;;15.50;96.90;;;;;;5079823;28;20450;-69
2023/05/14 03:24:27;;;;;;;7.83;7.03;;;15.50;96.90;;;;;;5079805;28;20454;-69
2023/05/14 03:26:54;;;;;;;7.10;6.50;;;15.60;96.70;;;;;;5079303;28;20565;-68
2023/05/14 03:29:21;;;;;;;8.00;6.50;;;15.50;96.50;;;;;;5080178;28;20537;-68
2023/05/14 03:31:48;;;;;;;7.60;6.90;;;15.50;96.40;;;;;;5079526;28;20486;-69
2023/05/14 03:34:15;;;;;;;7.47;6.87;;;15.60;96.00;;;;;;5079561;28;20481;-68
2023/05/14 03:36:43;;;;;;;7.03;6.33;;;15.60;96.00;;;;;;5079940;28;20454;-68
2023/05/14 03:39:10;;;;;;;10.20;6.97;;;15.60;95.70;;;;;;5078649;28;20478;-69
2023/05/14 03:41:38;;;;;;;10.40;7.00;;;15.60;95.70;;;;;;5079239;28;20554;-69
2023/05/14 03:44:05;;;;;;;7.20;6.50;;;15.50;95.60;;;;;;5079097;28;20588;-69
2023/05/14 03:46:32;;;;;;;7.00;6.20;;;15.50;95.80;;;;;;5079313;28;20465;-69
2023/05/14 03:48:58;;;;;;;10.43;6.30;;;15.50;95.30;;;;;;5079379;28;20915;-69
2023/05/14 03:51:25;;;;;;;7.13;6.43;;;15.50;95.60;;;;;;5079907;28;20537;-69
2023/05/14 03:53:53;;;;;;;8.23;6.27;;;15.60;95.30;;;;;;5078861;28;20573;-69
2023/05/14 03:56:21;;;;;;;7.43;6.30;;;15.60;95.70;;;;;;5079360;28;20952;-69
2023/05/14 03:58:48;;;;;;;9.10;6.13;;;15.70;95.40;;;;;;5079436;28;21029;-68
2023/05/14 04:01:14;;;;;;;6.80;6.20;;;15.70;95.10;;;;;;5079730;28;20464;-69
2023/05/14 04:03:41;;;;;;;6.30;5.70;;;15.80;95.00;;;;;;5080281;28;20457;-69
2023/05/14 04:06:08;;;;;;;8.80;6.50;;;15.80;95.10;;;;;;5079298;28;20464;-69
2023/05/14 04:08:35;;;;;;;9.80;5.80;;;15.90;94.80;;;;;;5079857;28;20517;-69
2023/05/14 04:11:04;;;;;;;7.00;6.30;;;15.90;94.50;;;;;;5079414;28;20454;-69
2023/05/14 04:13:31;;;;;;;6.63;6.03;;;15.90;94.00;;;;;;5080093;28;20565;-68
2023/05/14 04:15:58;;;;;;;6.37;5.63;;;15.80;93.80;;;;;;5080260;28;20537;-68
2023/05/14 04:18:25;;;;;;;6.53;5.93;;;15.80;93.80;;;;;;5079372;28;20497;-68
2023/05/14 04:20:52;;;;;;;6.10;5.60;;;15.80;94.70;;;;;;5079346;28;20553;-68
2023/05/14 04:23:19;;;;;;;8.80;6.50;;;15.80;94.80;;;;;;5079151;28;20461;-68
2023/05/14 04:25:45;;;;;;;6.30;5.70;;;15.80;95.00;;;;;;5079241;28;20775;-69
2023/05/14 04:28:14;;;;;;;11.97;6.70;;;15.70;95.40;;;;;;5079647;28;20950;-68
2023/05/14 04:30:41;;;;;;;6.27;5.77;;;15.70;95.30;;;;;;5079409;28;20838;-69
2023/05/14 04:33:08;;;;;;;6.73;6.07;;;15.70;95.20;;;;;;5079984;28;20565;-70
2023/05/14 04:35:34;;;;;;;6.97;6.10;;;15.70;95.50;;;;;;5079362;28;20527;-69
2023/05/14 04:38:01;;;;;;;6.20;5.60;;;15.70;95.90;;;;;;5080275;28;20557;-70
2023/05/14 04:40:29;;;;;;;7.13;6.33;;;15.70;95.30;;;;;;5080416;28;20450;-68
2023/05/14 04:42:56;;;;;;;6.77;6.17;;;15.70;95.40;;;;;;5079879;28;20542;-68
2023/05/14 04:45:25;;;;;;;7.60;6.90;;;15.70;95.90;;;;;;5079964;28;20518;-69
2023/05/14 04:47:52;;;;;;;7.60;6.60;;;15.70;95.90;;;;;;5079495;28;20450;-69
2023/05/14 04:50:18;;;;;;;10.23;6.13;;;15.70;95.90;;;;;;5080052;28;20541;-68
2023/05/14 04:52:45;;;;;;;8.20;5.87;;;15.70;95.70;;;;;;5080391;28;20484;-68
2023/05/14 04:55:12;;;;;;;9.33;6.83;;;15.70;95.60;;;;;;5080582;28;20454;-68
2023/05/14 04:57:39;;;;;;;7.10;6.40;;;15.70;96.40;;;;;;5080160;28;20549;-69
2023/05/14 05:00:08;;;;;;;7.27;6.57;;;15.70;96.90;;;;;;5080203;28;20450;-69
2023/05/14 05:02:37;;;;;;;9.50;6.00;;;15.70;96.40;;;;;;5080576;28;20450;-69
2023/05/14 05:05:04;;;;;;;7.17;6.23;;;15.70;96.20;;;;;;5079990;28;20458;-68
2023/05/14 05:07:31;;;;;;;7.87;6.17;;;15.80;96.40;;;;;;5079527;28;20459;-69
2023/05/14 05:09:59;;;;;;;6.27;5.67;;;15.80;96.50;;;;;;5079724;28;20536;-69
2023/05/14 05:12:28;;;;;;;9.13;6.00;;;15.90;96.80;;;;;;5079609;28;20531;-69
2023/05/14 05:14:55;;;;;;;6.67;6.07;;;15.90;97.10;;;;;;5079192;28;20491;-69
2023/05/14 05:17:22;;;;;;;6.87;6.17;;;15.90;97.40;;;;;;5078152;28;20454;-69
2023/05/14 05:19:51;;;;;;;9.43;6.17;;;16.00;97.50;;;;;;5078671;28;20490;-69
2023/05/14 05:22:19;;;;;;;6.87;6.00;;;16.00;97.40;;;;;;5078705;28;20455;-69
2023/05/14 05:24:46;;;;;;;8.07;6.33;;;16.00;97.10;;;;;;5078747;28;20827;-70
2023/05/14 05:27:13;;;;;;;6.50;5.90;;;16.00;97.40;;;;;;5079293;28;20458;-69
2023/05/14 05:29:40;;;;;;;8.30;6.63;;;16.00;97.70;;;;;;5078167;28;20565;-69
2023/05/14 05:32:07;;;;;;;8.50;6.43;;;16.00;97.60;;;;;;5078982;28;20478;-69
2023/05/14 05:34:35;;;;;;;5.90;5.40;;;16.00;97.30;;;;;;5079748;28;20454;-69
2023/05/14 05:37:04;;;;;;;6.87;6.23;;;16.10;97.10;;;;;;5078225;28;20454;-68
2023/05/14 05:39:33;;;;;;;6.30;5.80;;;16.00;95.90;;;;;;5078386;28;20810;-69
2023/05/14 05:42:01;;;;;;;7.63;6.93;;;16.00;95.10;;;;;;5079133;28;20484;-68
2023/05/14 05:44:27;;;;;;;6.13;5.53;;;16.00;94.90;;;;;;5078529;28;20461;-68
2023/05/14 05:46:55;;;;;;;10.33;5.30;;;16.10;94.80;;;;;;5078406;28;20465;-69
2023/05/14 05:49:22;;;;;;;6.93;5.80;;;16.20;94.30;;;;;;5079066;28;20510;-69
2023/05/14 05:51:49;;;;;;;6.43;5.23;;;16.20;93.50;;;;;;5078282;28;20899;-68
2023/05/14 05:54:17;;;;;;;6.37;5.20;;;16.20;92.50;;;;;;5077787;28;20488;-69
2023/05/14 05:56:44;;;;;;;7.93;6.60;;;16.30;91.40;;;;;;5080832;28;20485;-69
2023/05/14 05:59:11;;;;;;;6.17;5.00;;;16.30;91.10;;;;;;5082832;28;20858;-69
2023/05/14 06:01:39;;;;;;;5.50;5.00;;;16.40;90.60;;;;;;5081956;28;20458;-68
2023/05/14 06:04:06;;;;;;;7.67;6.10;;;16.40;89.00;;;;;;5082374;28;20458;-69
2023/05/14 06:06:33;;;;;;;5.53;4.33;;;16.50;90.30;;;;;;5082235;28;20483;-69
2023/05/14 06:09:00;;;;;;;5.80;5.20;;;16.50;89.50;;;;;;5081781;28;20497;-69
2023/05/14 06:11:28;;;;;;;6.53;5.00;;;16.60;89.50;;;;;;5081969;28;20472;-69
2023/05/14 06:13:55;;;;;;;7.30;5.43;;;16.60;88.70;;;;;;5081701;28;20484;-69
2023/05/14 06:16:22;;;;;;;5.77;5.27;;;16.70;88.50;;;;;;5082059;28;20460;-69
2023/05/14 06:18:51;;;;;;;6.50;5.90;;;16.80;88.40;;;;;;5082334;28;20545;-69
2023/05/14 06:21:17;;;;;;;7.27;5.23;;;16.80;85.90;;;;;;5082757;28;20461;-70
2023/05/14 06:23:44;;;;;;;5.83;5.23;;;16.80;83.10;;;;;;5081964;28;20461;-70
2023/05/14 06:26:11;;;;;;;7.77;5.50;;;16.90;85.00;;;;;;5081696;28;20465;-69
2023/05/14 06:28:39;;;;;;;5.83;5.23;;;17.00;85.30;;;;;;5081924;28;20458;-69
2023/05/14 06:31:06;;;;;;;5.27;4.77;;;17.10;83.30;;;;;;5082200;28;20458;-69
2023/05/14 06:33:33;;;;;;;6.00;5.13;;;17.10;82.00;;;;;;5082049;28;20488;-69
2023/05/14 06:36:01;;;;;;;7.23;5.03;;;17.20;84.60;;;;;;5082200;28;20549;-69
2023/05/14 06:38:27;;;;;;;6.27;4.97;;;17.20;81.60;;;;;;5081991;28;20474;-69
2023/05/14 06:40:54;;;;;;;5.20;4.63;;;17.30;83.00;;;;;;5082759;28;20469;-69
2023/05/14 06:43:21;;;;;;;5.23;4.73;;;17.40;81.10;;;;;;5082381;28;20489;-69
2023/05/14 06:45:50;;;;;;;5.60;4.47;;;17.50;81.40;;;;;;5083111;28;20458;-69
2023/05/14 06:48:17;;;;;;;5.20;4.70;;;17.70;80.10;;;;;;5082919;28;20548;-69
2023/05/14 06:50:44;;;;;;;5.43;4.40;;;17.80;76.20;;;;;;5082849;28;20465;-69
2023/05/14 06:53:12;;;;;;;7.77;5.10;;;17.80;75.40;;;;;;5083287;28;20513;-69
2023/05/14 06:55:39;;;;;;;5.03;4.57;;;18.00;73.30;;;;;;5083772;28;20541;-69
2023/05/14 06:58:06;;;;;;;6.53;4.20;;;18.00;72.70;;;;;;5083246;28;20458;-69
2023/05/14 07:00:33;;;;;;;7.27;4.50;;;18.10;71.20;;;;;;5084577;28;20863;-69
2023/05/14 07:03:01;;;;;;;9.97;6.40;;;18.20;71.10;;;;;;5083885;28;20853;-69
2023/05/14 07:05:28;;;;;;;10.47;9.37;;;18.30;70.70;;;;;;5083924;28;20461;-69
2023/05/14 07:07:55;;;;;;;8.83;7.93;;;18.40;71.20;;;;;;5083727;28;20754;-69
2023/05/14 07:10:22;;;;;;;7.93;6.97;;;18.50;70.20;;;;;;5084478;28;20465;-69
2023/05/14 07:12:49;;;;;;;9.57;7.60;;;18.60;69.40;;;;;;5083658;28;20494;-69
2023/05/14 07:15:16;;;;;;;13.80;9.53;;;18.70;68.60;;;;;;5083650;28;20465;-69
2023/05/14 07:17:43;;;;;;;8.30;7.50;;;18.80;67.40;;;;;;5082942;28;20454;-69
2023/05/14 07:20:12;;;;;;;5.43;4.20;;;18.80;66.20;;;;;;5082394;28;20458;-69
2023/05/14 07:22:39;;;;;;;4.43;4.00;;;18.90;65.90;;;;;;5081153;28;20476;-69
2023/05/14 07:25:07;;;;;;;4.80;4.30;;;19.00;65.80;;;;;;5080609;28;20465;-69
2023/05/14 07:27:33;;;;;;;6.83;4.70;;;19.10;64.30;;;;;;5082838;28;20522;-69
2023/05/14 07:30:00;;;;;;;6.00;4.30;;;19.20;63.60;;;;;;5085035;28;20529;-69
2023/05/14 07:32:27;;;;;;;4.23;3.83;;;19.20;64.40;;;;;;5085459;28;20510;-69
2023/05/14 07:34:54;;;;;;;4.60;4.20;;;19.30;63.50;;;;;;5084727;28;20564;-69
2023/05/14 07:37:24;;;;;;;6.37;4.10;;;19.30;62.00;;;;;;5082200;28;20457;-69
2023/05/14 07:39:51;;;;;;;4.40;4.00;;;19.40;61.20;;;;;;5082244;28;20486;-70
2023/05/14 07:42:18;;;;;;;4.23;3.73;;;19.50;61.20;;;;;;5082196;28;20515;-70
2023/05/14 07:44:45;;;;;;;5.40;4.10;;;19.60;63.80;;;;;;5081953;28;20454;-70
2023/05/14 07:47:12;;;;;;;4.57;3.80;;;19.70;63.90;;;;;;5082495;28;20934;-70
2023/05/14 07:49:39;;;;;;;5.90;4.00;;;19.80;62.30;;;;;;5081858;28;20454;-70
2023/05/14 07:52:06;;;;;;;4.27;3.87;;;19.90;60.70;;;;;;5082599;28;20458;-70
2023/05/14 07:54:34;;;;;;;8.13;4.70;;;20.10;64.50;;;;;;5084052;28;20502;-70
2023/05/14 07:57:01;;;;;;;7.43;6.00;;;20.10;61.50;;;;;;5083705;28;20465;-70
2023/05/14 07:59:27;;;;;;;5.60;5.10;;;20.20;62.10;;;;;;5084311;28;20537;-70
2023/05/14 08:01:54;;;;;;;6.10;4.17;;;20.30;61.30;;;;;;5083966;28;20510;-70
2023/05/14 08:04:22;;;;;;;6.10;4.10;;;20.40;58.80;;;;;;5082910;28;20450;-69
2023/05/14 08:06:49;;;;;;;5.60;3.97;;;20.50;58.60;;;;;;5083873;28;20458;-70
2023/05/14 08:09:16;;;;;;;6.93;4.30;;;20.60;59.20;;;;;;5084285;28;20446;-69
2023/05/14 08:11:44;;;;;;;6.97;4.03;;;20.60;56.10;;;;;;5083463;28;20446;-69
2023/05/14 08:14:11;;;;;;;4.57;4.10;;;20.70;56.10;;;;;;5083735;28;20520;-70
2023/05/14 08:16:38;;;;;;;3.97;3.37;;;20.70;53.40;;;;;;5082894;28;20486;-70
2023/05/14 08:19:05;;;;;;;10.00;4.20;;;20.80;54.10;;;;;;5082654;28;20450;-70
2023/05/14 08:21:32;;;;;;;8.80;4.70;;;20.80;54.50;;;;;;5083426;28;20450;-69
2023/05/14 08:23:59;;;;;;;5.17;4.67;;;20.90;53.50;;;;;;5082777;28;20450;-69
2023/05/14 08:26:26;;;;;;;4.50;4.03;;;21.00;53.30;;;;;;5082519;28;20781;-70
2023/05/14 08:28:54;;;;;;;6.43;3.97;;;21.10;53.60;;;;;;5081995;28;20974;-70
2023/05/14 08:31:21;;;;;;;5.03;4.53;;;21.20;53.80;;;;;;5082203;28;20472;-70
2023/05/14 08:33:48;;;;;;;4.97;4.27;;;21.30;53.80;;;;;;5081005;28;20544;-70
2023/05/14 08:36:15;;;;;;;5.07;3.87;;;21.40;52.10;;;;;;5081255;28;20453;-70
2023/05/14 08:38:43;;;;;;;9.00;4.87;;;21.50;52.30;;;;;;5079685;28;20545;-68
2023/05/14 08:41:15;;;;;;;4.10;3.43;;;21.60;52.10;;;;;;5080246;28;20450;-69
2023/05/14 08:43:48;;;;;;;3.60;3.30;;;21.50;50.90;;;;;;5081297;28;20474;-69
2023/05/14 08:46:18;;;;;;;4.90;3.63;;;21.50;51.10;;;;;;5079577;28;20829;-70
2023/05/14 08:48:50;;;;;;;4.80;3.93;;;21.70;51.10;;;;;;5080716;28;20537;-70
2023/05/14 08:51:17;;;;;;;4.30;3.60;;;21.80;50.40;;;;;;5081306;28;20843;-69
2023/05/14 08:53:45;;;;;;;8.30;3.63;;;21.90;49.00;;;;;;5080176;28;20492;-70
2023/05/14 08:56:12;;;;;;;4.47;4.07;;;21.90;48.50;;;;;;5079401;28;20492;-70
2023/05/14 08:58:39;;;;;;;7.00;3.77;;;22.00;47.40;;;;;;5077879;28;20468;-70
2023/05/14 09:01:06;;;;;;;4.40;4.00;;;22.10;48.30;;;;;;5078373;28;20453;-70
2023/05/14 09:03:36;;;;;;;3.73;3.43;;;22.20;48.10;;;;;;5078565;28;20511;-69
2023/05/14 09:06:04;;;;;;;4.07;3.77;;;22.30;47.80;;;;;;5077877;28;20465;-71
2023/05/14 09:08:32;;;;;;;4.00;3.70;;;22.40;47.20;;;;;;5077392;28;20474;-70
2023/05/14 09:10:59;;;;;;;4.90;3.70;;;22.40;46.00;;;;;;5077217;28;20511;-70
2023/05/14 09:13:26;;;;;;;5.00;3.80;;;22.50;46.90;;;;;;5078097;28;20833;-69
2023/05/14 09:15:53;;;;;;;4.57;3.73;;;22.60;45.50;;;;;;5078281;28;20497;-70
2023/05/14 09:18:21;;;;;;;4.20;3.87;;;22.70;45.40;;;;;;5078263;28;20454;-70
2023/05/14 09:20:50;;;;;;;3.47;3.17;;;22.80;45.10;;;;;;5078026;28;20454;-69
2023/05/14 09:23:17;;;;;;;3.90;3.57;;;22.90;44.00;;;;;;5077735;28;20557;-70
2023/05/14 09:25:45;;;;;;;3.83;3.53;;;22.90;42.50;;;;;;5078181;28;20458;-69
2023/05/14 09:28:12;;;;;;;9.33;3.53;;;23.00;43.10;;;;;;5077968;28;20833;-70
2023/05/14 09:30:38;;;;;;;3.83;3.53;;;22.90;41.80;;;;;;5080100;28;20546;-68
2023/05/14 09:33:09;;;;;;;3.60;3.30;;;22.90;42.40;;;;;;5082296;28;20461;-69
2023/05/14 09:35:39;;;;;;;3.73;3.30;;;22.90;42.80;;;;;;5081351;28;20484;-69
2023/05/14 09:38:08;;;;;;;3.83;3.53;;;22.80;41.70;;;;;;5081637;28;20455;-69
2023/05/14 09:40:35;;;;;;;3.87;3.17;;;22.80;42.40;;;;;;5081248;28;20960;-69
2023/05/14 09:43:02;;;;;;;5.90;3.53;;;22.80;41.40;;;;;;5081528;28;20544;-69
2023/05/14 09:45:30;;;;;;;3.73;3.43;;;22.70;41.30;;;;;;5081194;28;20442;-68
2023/05/14 09:47:59;;;;;;;5.27;4.40;;;22.60;42.60;;;;;;5082719;28;20460;-69
2023/05/14 09:50:27;;;;;;;4.40;3.53;;;22.50;41.30;;;;;;5083775;28;20851;-69
2023/05/14 09:52:55;;;;;;;3.50;3.20;;;22.40;39.70;;;;;;5084046;28;20450;-69
2023/05/14 09:55:25;;;;;;;3.90;3.50;;;22.40;39.50;;;;;;5082444;28;20524;-70
2023/05/14 09:57:51;;;;;;;5.10;3.60;;;22.40;40.50;;;;;;5082263;28;20845;-69
2023/05/14 10:00:19;;;;;;;5.33;3.63;;;22.40;40.60;;;;;;5082535;28;20516;-70
2023/05/14 10:02:47;;;;;;;4.17;2.73;;;22.30;40.50;;;;;;5081317;28;20538;-70
2023/05/14 10:05:15;;;;;;;5.07;4.57;;;22.30;40.40;;;;;;5081331;28;20537;-70
2023/05/14 10:07:47;;;;;;;6.17;3.70;;;22.40;39.90;;;;;;5082100;28;20464;-70
2023/05/14 10:10:18;;;;;;;4.20;3.43;;;22.40;39.40;;;;;;5081121;28;20529;-69
2023/05/14 10:12:52;;;;;;;3.90;3.60;;;22.30;38.50;;;;;;5080665;28;20438;-69
2023/05/14 10:15:26;;;;;;;3.83;3.43;;;22.30;39.50;;;;;;5080813;28;20475;-70
2023/05/14 10:17:58;;;;;;;7.23;4.00;;;22.30;39.80;;;;;;5080624;28;20839;-70
2023/05/14 10:20:26;;;;;;;4.43;3.60;;;22.30;39.60;;;;;;5079396;28;20537;-69
2023/05/14 10:22:53;;;;;;;4.70;3.80;;;22.40;40.70;;;;;;5081605;28;20454;-69
2023/05/14 10:25:21;;;;;;;4.40;3.40;;;22.40;40.10;;;;;;5081228;28;20489;-71
2023/05/14 10:27:49;;;;;;;4.00;3.63;;;22.40;39.00;;;;;;5080937;28;20481;-69
2023/05/14 10:30:16;;;;;;;6.23;3.10;;;22.30;39.80;;;;;;5080923;28;20512;-71
2023/05/14 10:32:43;;;;;;;4.17;3.67;;;22.20;39.30;;;;;;5080910;28;20497;-70
2023/05/14 10:35:19;;;;;;;7.67;3.30;;;22.20;38.30;;;;;;5081047;28;20481;-71
2023/05/14 10:37:46;;;;;;;4.43;3.80;;;22.20;38.20;;;;;;5081376;28;20841;-70
2023/05/14 10:40:13;;;;;;;3.67;3.37;;;22.20;39.60;;;;;;5079802;28;20518;-70
2023/05/14 10:42:42;;;;;;;4.43;3.70;;;22.30;39.50;;;;;;5079479;28;20763;-70
2023/05/14 10:45:12;;;;;;;5.33;3.77;;;22.40;38.80;;;;;;5080236;28;20469;-69
2023/05/14 10:47:42;;;;;;;3.97;3.57;;;22.40;38.00;;;;;;5080082;28;20449;-70
2023/05/14 10:50:11;;;;;;;4.13;3.60;;;22.50;37.40;;;;;;5080429;28;20465;-71
2023/05/14 10:52:38;;;;;;;4.07;3.67;;;22.60;37.30;;;;;;5080876;28;20907;-70
2023/05/14 10:55:07;;;;;;;5.07;3.67;;;22.50;36.50;;;;;;5081127;28;20525;-71
2023/05/14 10:57:39;;;;;;;11.03;4.60;;;22.50;37.90;;;;;;5080298;28;20453;-72
2023/05/14 11:00:07;;;;;;;4.43;4.03;;;22.50;38.20;;;;;;5079829;28;20464;-70
2023/05/14 11:02:37;;;;;;;5.73;3.50;;;22.50;37.90;;;;;;5079962;28;20458;-71
2023/05/14 11:05:07;;;;;;;6.37;3.60;;;22.50;37.50;;;;;;5079339;28;20541;-68
2023/05/14 11:07:35;;;;;;;4.70;3.67;;;22.60;37.90;;;;;;5077064;28;20462;-69
2023/05/14 11:10:04;;;;;;;4.10;3.60;;;22.70;37.80;;;;;;5076165;28;20454;-69
2023/05/14 11:12:31;;;;;;;3.70;3.40;;;22.70;37.60;;;;;;5077251;28;20485;-70
2023/05/14 11:15:00;;;;;;;4.53;4.10;;;22.60;36.00;;;;;;5079872;28;20474;-71
2023/05/14 11:17:28;;;;;;;5.20;3.53;;;22.50;37.00;;;;;;5079344;28;20454;-70
2023/05/14 11:19:57;;;;;;;4.33;3.53;;;22.30;36.80;;;;;;5079393;28;20454;-70
2023/05/14 11:22:25;;;;;;;5.83;4.23;;;22.20;37.10;;;;;;5079804;28;20848;-70
2023/05/14 11:24:52;;;;;;;5.63;5.00;;;22.20;37.20;;;;;;5080366;28;20455;-71
2023/05/14 11:27:20;;;;;;;8.10;7.23;;;22.20;37.80;;;;;;5080173;28;20553;-71
2023/05/14 11:29:48;;;;;;;5.00;4.50;;;22.20;37.50;;;;;;5080411;28;20453;-70
2023/05/14 11:32:16;;;;;;;5.80;5.17;;;22.20;37.50;;;;;;5080832;28;20458;-70
2023/05/14 11:34:44;;;;;;;5.93;4.50;;;22.20;38.00;;;;;;5079854;28;20532;-70
2023/05/14 11:37:14;;;;;;;4.70;3.67;;;22.20;38.00;;;;;;5079337;28;20555;-70
2023/05/14 11:39:49;;;;;;;7.87;3.87;;;22.30;37.60;;;;;;5079355;28;20569;-69
2023/05/14 11:42:18;;;;;;;4.70;4.30;;;22.30;38.20;;;;;;5080239;28;20463;-72
2023/05/14 11:44:47;;;;;;;8.20;4.20;;;22.50;37.80;;;;;;5079985;28;20761;-70
2023/05/14 11:47:15;;;;;;;6.10;3.93;;;22.50;37.30;;;;;;5077712;28;20907;-69
2023/05/14 11:49:42;;;;;;;9.23;4.10;;;22.60;37.70;;;;;;5075418;28;20925;-68
2023/05/14 11:52:12;;;;;;;7.00;5.23;;;22.70;38.30;;;;;;5075291;28;20458;-68
2023/05/14 11:54:42;;;;;;;8.23;6.70;;;22.90;38.80;;;;;;5074246;28;20489;-68
2023/05/14 11:57:11;;;;;;;10.70;5.33;;;23.00;38.80;;;;;;5075223;28;20561;-69
2023/05/14 11:59:39;;;;;;;4.60;4.20;;;23.00;38.20;;;;;;5074829;28;20458;-68
2023/05/14 12:02:10;;;;;;;7.53;3.80;;;23.00;37.50;;;;;;5074989;28;20502;-69
2023/05/14 12:04:37;;;;;;;7.17;5.87;;;22.90;38.00;;;;;;5074890;28;20496;-68
2023/05/14 12:07:09;;;;;;;7.87;5.80;;;22.90;37.40;;;;;;5075164;28;20741;-69
2023/05/14 12:09:38;;;;;;;4.57;4.17;;;22.90;37.60;;;;;;5075047;28;20442;-69
2023/05/14 12:12:11;;;;;;;4.93;3.87;;;23.00;37.90;;;;;;5074618;28;20458;-68
2023/05/14 12:14:40;;;;;;;3.97;3.67;;;23.00;37.00;;;;;;5074915;28;20715;-68
2023/05/14 12:17:13;;;;;;;6.73;3.90;;;23.00;37.90;;;;;;5074918;28;20486;-68
2023/05/14 12:19:41;;;;;;;8.83;5.70;;;23.00;37.70;;;;;;5075216;28;20731;-69
2023/05/14 12:22:09;;;;;;;4.97;4.47;;;23.10;38.50;;;;;;5074545;28;20458;-69
2023/05/14 12:24:36;;;;;;;5.57;4.57;;;23.10;38.00;;;;;;5074661;28;20450;-69
2023/05/14 12:27:03;;;;;;;7.80;5.40;;;23.20;37.60;;;;;;5074451;28;20462;-68
2023/05/14 12:29:36;;;;;;;5.63;5.03;;;23.30;37.30;;;;;;5074433;28;20454;-68
2023/05/14 12:32:07;;;;;;;13.90;8.30;;;23.50;37.90;;;;;;5074419;28;20442;-68
2023/05/14 12:34:34;;;;;;;6.50;5.30;;;23.60;36.60;;;;;;5074888;28;20470;-68
2023/05/14 12:37:01;;;;;;;6.53;5.13;;;23.70;37.30;;;;;;5074315;28;20508;-68
2023/05/14 12:39:28;;;;;;;7.07;4.30;;;23.90;37.40;;;;;;5074081;28;20535;-68
2023/05/14 12:41:55;;;;;;;5.00;4.57;;;24.00;36.20;;;;;;5074535;28;20462;-67
2023/05/14 12:44:22;;;;;;;7.37;6.67;;;24.20;36.00;;;;;;5074499;28;20850;-68
2023/05/14 12:46:50;;;;;;;5.50;3.90;;;24.60;36.10;;;;;;5074604;28;20454;-68
2023/05/14 12:49:17;;;;;;;4.00;3.70;;;24.80;33.80;;;;;;5074686;28;20453;-70